Latest Conditions
At L.F.Wade Int. Airport
Recorded at 5:55 am
Partly Cloudy
Temp.: 
26°C/78°F
Humidity: 
89%
Wind: 
SSW 3KT
or 3mph
Island Observations
 
Observations
Monday, July 13, 2020

Observations are in local time and taken at least once an hour, or upon the start and end of specified events such as showers and thunderstorms.

Time Sky / Weather Wind Speed/Gusts Temp. R.H. Pressure
     knots (mph)  °C (°F)  %  mb / "Hg
 05:55 Partly Cloudy  SSW 3/0 (3/0) 26(78) 89 1021 / 30.16
 04:55 Few Clouds  SW 4/0 (5/0) 26(78) 88 1021 / 30.15
 03:55 Partly Cloudy  SSW 6/0 (7/0) 26(79) 88 1021 / 30.16
 02:55 Mostly Cloudy  SW 6/0 (7/0) 26(79) 87 1021 / 30.16
 01:55 Partly Cloudy  SW 7/0 (8/0) 26(79) 86 1022 / 30.17
 00:55 Few Clouds  SW 8/0 (9/0) 26(79) 86 1022 / 30.19
 23:55 Few Clouds  SW 8/0 (9/0) 26(80) 85 1022 / 30.19
 22:55 Few Clouds  SW 7/0 (8/0) 27(80) 87 1022 / 30.19
 21:55 Few Clouds  SSW 7/0 (8/0) 27(80) 85 1022 / 30.17
 20:55 Few Clouds  SSW 7/0 (8/0) 27(80) 85 1021 / 30.16
 19:55 Few Clouds  SSW 8/0 (9/0) 27(81) 84 1021 / 30.14
 18:55 Few Clouds  SSW 10/0 (12/0) 28(82) 80 1021 / 30.15
 17:55 Few Clouds  SSW 10/0 (12/0) 28(83) 79 1021 / 30.15
 16:55 Partly Cloudy  SSW 12/0 (14/0) 29(84) 79 1021 / 30.15
 15:55 Few Clouds  SSW 12/0 (14/0) 29(84) 79 1021 / 30.16
 14:55 Few Clouds  SSW 10/0 (12/0) 29(84) 77 1021 / 30.16
 13:55 Few Clouds  SSW 11/0 (13/0) 29(84) 76 1022 / 30.17
 12:55 Few Clouds  SSW 9/0 (10/0) 29(84) 78 1022 / 30.17
 11:55 Few Clouds  SSW 10/0 (12/0) 29(84) 76 1022 / 30.18
 10:55 Few Clouds  SSW 10/0 (12/0) 28(82) 79 1022 / 30.18
 09:55 Partly Cloudy  SSW 10/0 (12/0) 28(82) 79 1022 / 30.17
 08:55 Partly Cloudy  SSW 9/0 (10/0) 27(81) 82 1022 / 30.18
 07:55 Few Clouds  SSW 8/0 (9/0) 27(80) 85 1022 / 30.18
 06:55 Few Clouds  SSW 7/0 (8/0) 26(79) 88 1022 / 30.17
 05:55 Partly Cloudy  S 7/0 (8/0) 26(79) 89 1021 / 30.16
 04:55 Partly Cloudy  SSW 6/0 (7/0) 26(79) 89 1021 / 30.15
 03:55 Partly Cloudy  SSW 6/0 (7/0) 26(79) 89 1021 / 30.16
 02:55 Partly Cloudy  S 6/0 (7/0) 26(79) 89 1021 / 30.16
 01:55 Partly Cloudy  S 6/0 (7/0) 26(79) 89 1022 / 30.17
 00:55 Partly Cloudy  SSW 7/0 (8/0) 26(80) 88 1022 / 30.18
 23:55 Partly Cloudy  S 6/0 (7/0) 26(80) 88 1022 / 30.18
 22:55 Partly Cloudy  S 6/0 (7/0) 26(80) 87 1022 / 30.18
 21:55 Partly Cloudy  SSW 7/0 (8/0) 27(80) 87 1022 / 30.17
 20:55 Few Clouds  S 8/0 (9/0) 27(80) 86 1021 / 30.15
 19:55 Few Clouds  S 8/0 (9/0) 27(81) 84 1021 / 30.14
 18:55 Few Clouds  SSW 10/0 (12/0) 28(82) 80 1021 / 30.14
 17:55 Few Clouds  SSW 10/0 (12/0) 28(83) 79 1021 / 30.14
 16:55 Few Clouds  SSW 11/0 (13/0) 28(83) 79 1021 / 30.15
 15:55 Few Clouds  S 10/0 (12/0) 28(83) 79 1021 / 30.16
 14:55 Few Clouds  S 11/0 (13/0) 28(83) 79 1022 / 30.17
 13:55 Partly Cloudy  S 10/0 (12/0) 28(83) 79 1022 / 30.18
 12:55 Partly Cloudy  S 12/0 (14/0) 28(83) 81 1022 / 30.19
 11:55 Few Clouds  S 11/0 (13/0) 28(83) 81 1022 / 30.18
 10:55 Few Clouds  S 12/0 (14/0) 28(82) 81 1022 / 30.18
 09:55 Few Clouds  SSE 11/0 (13/0) 28(82) 81 1022 / 30.18
 08:55 Few Clouds  S 10/0 (12/0) 27(80) 84 1022 / 30.18
 07:55 Few Clouds  S 10/0 (12/0) 26(79) 86 1022 / 30.17
 06:55 Few Clouds  S 10/0 (12/0) 26(79) 88 1022 / 30.17
 05:55 Partly Cloudy Showers SSE 9/0 (10/0) 26(79) 88 1021 / 30.16
 04:55 Partly Cloudy  S 9/0 (10/0) 26(79) 88 1021 / 30.16
 03:55 Partly Cloudy  S 9/0 (10/0) 26(79) 88 1021 / 30.16
 02:55 Partly Cloudy  S 10/0 (12/0) 26(80) 87 1021 / 30.15
 01:55 Few Clouds  S 9/0 (10/0) 26(80) 87 1022 / 30.17
 00:55 Few Clouds  S 9/0 (10/0) 26(80) 87 1022 / 30.18
 23:55 Partly Cloudy  S 8/0 (9/0) 26(80) 88 1022 / 30.19
 22:55 Mostly Cloudy  S 8/0 (9/0) 26(80) 87 1022 / 30.19
 21:55 Few Clouds  S 9/0 (10/0) 27(80) 86 1022 / 30.18
 20:55 Partly Cloudy  S 10/0 (12/0) 27(81) 85 1022 / 30.17
 19:55 Partly Cloudy  S 10/0 (12/0) 27(81) 83 1021 / 30.16
 18:55 Few Clouds  S 12/0 (14/0) 28(82) 81 1021 / 30.16
 17:55 Few Clouds  S 11/0 (13/0) 28(82) 81 1022 / 30.17
 16:55 Few Clouds  S 13/0 (15/0) 28(83) 79 1022 / 30.17
 15:55 Few Clouds  S 12/0 (14/0) 28(83) 79 1022 / 30.18
 14:55 Few Clouds  S 12/0 (14/0) 28(83) 79 1022 / 30.19
 13:55 Few Clouds  SSE 12/0 (14/0) 27(81) 84 1023 / 30.20
 12:55 Partly Cloudy  SSE 14/0 (16/0) 28(83) 78 1023 / 30.20
 11:55 Mostly Cloudy  SSE 12/0 (14/0) 28(83) 79 1023 / 30.20
 10:55 Partly Cloudy  SSE 12/0 (14/0) 28(82) 80 1023 / 30.20
 09:55 Partly Cloudy  SSE 12/0 (14/0) 27(81) 82 1022 / 30.18
 08:55 Few Clouds  SSE 13/0 (15/0) 27(81) 82 1022 / 30.18
 07:55 Few Clouds  S 11/0 (13/0) 27(80) 83 1022 / 30.17
 06:55 Few Clouds  SSE 12/0 (14/0) 26(80) 85 1021 / 30.15
 05:55 Few Clouds  SE 11/0 (13/0) 26(79) 86 1020 / 30.13
 04:55 Partly Cloudy  S 8/0 (9/0) 26(79) 86 1020 / 30.12
 03:55 Few Clouds  SSE 8/0 (9/0) 26(79) 86 1020 / 30.12
 02:55 Partly Cloudy  S 10/0 (12/0) 26(79) 85 1020 / 30.13
 01:55 Few Clouds  S 10/0 (12/0) 26(79) 84 1021 / 30.15
 00:55 Few Clouds  S 11/0 (13/0) 26(79) 82 1022 / 30.17
 23:55 Partly Cloudy  S 10/0 (12/0) 26(79) 82 1022 / 30.18
 22:55 Partly Cloudy  S 9/0 (10/0) 26(79) 85 1022 / 30.17
 21:55 Partly Cloudy  SSE 8/0 (9/0) 27(80) 82 1022 / 30.17
 20:55 Partly Cloudy  S 7/0 (8/0) 27(81) 80 1021 / 30.15
 19:55 Partly Cloudy  S 8/0 (9/0) 27(81) 80 1021 / 30.16
 18:55 Partly Cloudy  S 9/0 (10/0) 28(82) 79 1021 / 30.14
 17:55 Few Clouds  S 8/0 (9/0) 28(82) 81 1020 / 30.13
 16:55 Few Clouds  S 8/0 (9/0) 28(82) 76 1021 / 30.14
 15:55 Partly Cloudy  SSE 7/0 (8/0) 28(82) 77 1021 / 30.14
 14:55 Partly Cloudy  SSE 7/0 (8/0) 28(83) 76 1021 / 30.15
 13:55 Partly Cloudy Showers SSE 8/0 (9/0) 28(82) 79 1021 / 30.14
 12:55 Partly Cloudy  SSE 7/0 (8/0) 28(82) 78 1021 / 30.15
 11:55 Partly Cloudy  SSE 7/0 (8/0) 27(81) 80 1021 / 30.15
 10:55 Partly Cloudy  SSE 7/0 (8/0) 27(81) 78 1021 / 30.15
 09:55 Partly Cloudy  S 6/0 (7/0) 26(80) 83 1021 / 30.14
 08:55 Few Clouds Showers S 6/0 (7/0) 27(80) 80 1020 / 30.13
 07:55 Partly Cloudy Showers SSW 3/0 (3/0) 26(78) 87 1020 / 30.12
 06:55 Partly Cloudy  SSW 3/0 (3/0) 25(77) 87 1020 / 30.11
 05:55 Mostly Cloudy Showers SW 6/0 (7/0) 25(76) 88 1019 / 30.10
 04:55 Partly Cloudy Showers SSW 5/0 (6/0) 25(77) 87 1019 / 30.10
 03:55 Mostly Cloudy Showers W 3/0 (3/0) 25(77) 86 1019 / 30.10
 02:55 Mostly Cloudy Showers S 5/0 (6/0) 25(77) 84 1019 / 30.10
Island AWOS